sensor_id;sensor_type;location;lat;lon;timestamp;P1;durP1;ratioP1;P2;durP2;ratioP2
20832;SDS011;56075;51.264;7.150;2023-07-20T00:00:00;16.95;;;9.40;;
20832;SDS011;56075;51.264;7.150;2023-07-20T00:02:31;22.45;;;10.15;;
20832;SDS011;56075;51.264;7.150;2023-07-20T00:05:02;18.42;;;9.65;;
20832;SDS011;56075;51.264;7.150;2023-07-20T00:07:33;18.23;;;9.50;;
20832;SDS011;56075;51.264;7.150;2023-07-20T00:10:05;23.15;;;9.75;;
20832;SDS011;56075;51.264;7.150;2023-07-20T00:12:36;17.33;;;9.82;;
20832;SDS011;56075;51.264;7.150;2023-07-20T00:15:07;17.88;;;9.75;;
20832;SDS011;56075;51.264;7.150;2023-07-20T00:17:39;22.60;;;10.15;;
20832;SDS011;56075;51.264;7.150;2023-07-20T00:20:10;21.00;;;10.63;;
20832;SDS011;56075;51.264;7.150;2023-07-20T00:22:42;23.60;;;10.80;;
20832;SDS011;56075;51.264;7.150;2023-07-20T00:25:13;21.50;;;10.68;;
20832;SDS011;56075;51.264;7.150;2023-07-20T00:27:44;25.27;;;11.70;;
20832;SDS011;56075;51.264;7.150;2023-07-20T00:30:15;23.55;;;10.85;;
20832;SDS011;56075;51.264;7.150;2023-07-20T00:32:48;21.95;;;10.82;;
20832;SDS011;56075;51.264;7.150;2023-07-20T00:35:20;24.63;;;10.35;;
20832;SDS011;56075;51.264;7.150;2023-07-20T00:37:51;23.77;;;10.88;;
20832;SDS011;56075;51.264;7.150;2023-07-20T00:40:22;22.05;;;10.88;;
20832;SDS011;56075;51.264;7.150;2023-07-20T00:42:54;22.45;;;11.70;;
20832;SDS011;56075;51.264;7.150;2023-07-20T00:45:28;30.23;;;11.85;;
20832;SDS011;56075;51.264;7.150;2023-07-20T00:48:01;25.10;;;11.90;;
20832;SDS011;56075;51.264;7.150;2023-07-20T00:50:33;25.80;;;11.45;;
20832;SDS011;56075;51.264;7.150;2023-07-20T00:53:05;27.15;;;12.00;;
20832;SDS011;56075;51.264;7.150;2023-07-20T00:55:37;28.05;;;12.93;;
20832;SDS011;56075;51.264;7.150;2023-07-20T00:58:08;24.67;;;12.32;;
20832;SDS011;56075;51.264;7.150;2023-07-20T01:00:39;24.02;;;12.07;;
20832;SDS011;56075;51.264;7.150;2023-07-20T01:03:10;22.35;;;11.02;;
20832;SDS011;56075;51.264;7.150;2023-07-20T01:05:54;22.38;;;10.63;;
20832;SDS011;56075;51.264;7.150;2023-07-20T01:08:36;21.42;;;10.93;;
20832;SDS011;56075;51.264;7.150;2023-07-20T01:11:17;21.38;;;11.65;;
20832;SDS011;56075;51.264;7.150;2023-07-20T01:14:00;21.67;;;11.25;;
20832;SDS011;56075;51.264;7.150;2023-07-20T01:16:32;25.05;;;11.63;;
20832;SDS011;56075;51.264;7.150;2023-07-20T01:19:03;21.25;;;11.23;;
20832;SDS011;56075;51.264;7.150;2023-07-20T01:21:59;21.65;;;10.93;;
20832;SDS011;56075;51.264;7.150;2023-07-20T01:24:56;23.10;;;10.10;;
20832;SDS011;56075;51.264;7.150;2023-07-20T01:27:49;23.05;;;10.23;;
20832;SDS011;56075;51.264;7.150;2023-07-20T01:33:29;18.50;;;9.23;;
20832;SDS011;56075;51.264;7.150;2023-07-20T01:36:03;18.20;;;8.68;;
20832;SDS011;56075;51.264;7.150;2023-07-20T01:38:36;17.20;;;7.88;;
20832;SDS011;56075;51.264;7.150;2023-07-20T01:41:08;13.80;;;7.38;;
20832;SDS011;56075;51.264;7.150;2023-07-20T01:43:39;20.27;;;8.13;;
20832;SDS011;56075;51.264;7.150;2023-07-20T01:46:11;15.23;;;7.20;;
20832;SDS011;56075;51.264;7.150;2023-07-20T01:48:42;13.00;;;7.70;;
20832;SDS011;56075;51.264;7.150;2023-07-20T01:51:13;17.40;;;7.38;;
20832;SDS011;56075;51.264;7.150;2023-07-20T01:53:45;16.52;;;7.63;;
20832;SDS011;56075;51.264;7.150;2023-07-20T01:56:18;24.63;;;10.02;;
20832;SDS011;56075;51.264;7.150;2023-07-20T01:58:50;23.80;;;9.95;;
20832;SDS011;56075;51.264;7.150;2023-07-20T02:01:21;21.63;;;9.35;;
20832;SDS011;56075;51.264;7.150;2023-07-20T02:03:54;23.50;;;9.90;;
20832;SDS011;56075;51.264;7.150;2023-07-20T02:06:26;19.38;;;9.45;;
20832;SDS011;56075;51.264;7.150;2023-07-20T02:08:57;18.23;;;8.05;;
20832;SDS011;56075;51.264;7.150;2023-07-20T02:11:29;14.48;;;7.47;;
20832;SDS011;56075;51.264;7.150;2023-07-20T02:14:00;13.82;;;6.78;;
20832;SDS011;56075;51.264;7.150;2023-07-20T02:16:31;18.48;;;7.30;;
20832;SDS011;56075;51.264;7.150;2023-07-20T02:19:03;14.98;;;6.78;;
20832;SDS011;56075;51.264;7.150;2023-07-20T02:21:34;12.75;;;5.95;;
20832;SDS011;56075;51.264;7.150;2023-07-20T02:24:06;11.93;;;6.25;;
20832;SDS011;56075;51.264;7.150;2023-07-20T02:26:37;14.07;;;5.80;;
20832;SDS011;56075;51.264;7.150;2023-07-20T02:29:08;10.18;;;5.57;;
20832;SDS011;56075;51.264;7.150;2023-07-20T02:31:42;13.73;;;5.80;;
20832;SDS011;56075;51.264;7.150;2023-07-20T02:34:13;11.05;;;5.78;;
20832;SDS011;56075;51.264;7.150;2023-07-20T02:36:44;12.13;;;5.60;;
20832;SDS011;56075;51.264;7.150;2023-07-20T02:39:16;13.18;;;5.65;;
20832;SDS011;56075;51.264;7.150;2023-07-20T02:41:47;14.27;;;5.82;;
20832;SDS011;56075;51.264;7.150;2023-07-20T02:44:19;12.63;;;5.82;;
20832;SDS011;56075;51.264;7.150;2023-07-20T02:46:50;14.10;;;5.90;;
20832;SDS011;56075;51.264;7.150;2023-07-20T02:49:21;16.08;;;5.65;;
20832;SDS011;56075;51.264;7.150;2023-07-20T02:51:52;10.15;;;5.60;;
20832;SDS011;56075;51.264;7.150;2023-07-20T02:54:23;14.13;;;5.95;;
20832;SDS011;56075;51.264;7.150;2023-07-20T02:56:54;16.23;;;6.18;;
20832;SDS011;56075;51.264;7.150;2023-07-20T02:59:26;12.43;;;5.88;;
20832;SDS011;56075;51.264;7.150;2023-07-20T03:01:57;12.57;;;6.15;;
20832;SDS011;56075;51.264;7.150;2023-07-20T03:04:29;12.23;;;6.15;;
20832;SDS011;56075;51.264;7.150;2023-07-20T03:07:00;13.68;;;5.15;;
20832;SDS011;56075;51.264;7.150;2023-07-20T03:09:31;13.05;;;5.43;;
20832;SDS011;56075;51.264;7.150;2023-07-20T03:12:02;13.48;;;5.63;;
20832;SDS011;56075;51.264;7.150;2023-07-20T03:14:35;13.77;;;5.55;;
20832;SDS011;56075;51.264;7.150;2023-07-20T03:17:06;10.75;;;5.45;;
20832;SDS011;56075;51.264;7.150;2023-07-20T03:19:39;11.07;;;5.18;;
20832;SDS011;56075;51.264;7.150;2023-07-20T03:22:10;12.73;;;5.10;;
20832;SDS011;56075;51.264;7.150;2023-07-20T03:24:41;11.55;;;5.22;;
20832;SDS011;56075;51.264;7.150;2023-07-20T03:27:12;11.48;;;5.60;;
20832;SDS011;56075;51.264;7.150;2023-07-20T03:29:43;12.20;;;5.50;;
20832;SDS011;56075;51.264;7.150;2023-07-20T03:32:15;9.90;;;5.00;;
20832;SDS011;56075;51.264;7.150;2023-07-20T03:34:47;12.50;;;5.55;;
20832;SDS011;56075;51.264;7.150;2023-07-20T03:37:18;12.02;;;5.05;;
20832;SDS011;56075;51.264;7.150;2023-07-20T03:39:50;11.05;;;5.65;;
20832;SDS011;56075;51.264;7.150;2023-07-20T03:42:21;12.63;;;5.65;;
20832;SDS011;56075;51.264;7.150;2023-07-20T03:44:53;14.05;;;5.63;;
20832;SDS011;56075;51.264;7.150;2023-07-20T03:47:25;13.65;;;5.80;;
20832;SDS011;56075;51.264;7.150;2023-07-20T03:49:56;12.50;;;5.65;;
20832;SDS011;56075;51.264;7.150;2023-07-20T03:52:27;12.27;;;5.55;;
20832;SDS011;56075;51.264;7.150;2023-07-20T03:54:58;10.63;;;5.28;;
20832;SDS011;56075;51.264;7.150;2023-07-20T03:57:30;14.05;;;5.63;;
20832;SDS011;56075;51.264;7.150;2023-07-20T04:00:03;15.80;;;5.68;;
20832;SDS011;56075;51.264;7.150;2023-07-20T04:02:43;9.93;;;5.38;;
20832;SDS011;56075;51.264;7.150;2023-07-20T04:05:14;12.57;;;5.68;;
20832;SDS011;56075;51.264;7.150;2023-07-20T04:07:46;14.95;;;5.88;;
20832;SDS011;56075;51.264;7.150;2023-07-20T04:10:18;13.55;;;5.72;;
20832;SDS011;56075;51.264;7.150;2023-07-20T04:12:49;14.93;;;5.88;;
20832;SDS011;56075;51.264;7.150;2023-07-20T04:15:21;15.88;;;5.97;;
20832;SDS011;56075;51.264;7.150;2023-07-20T04:17:52;10.60;;;5.43;;
20832;SDS011;56075;51.264;7.150;2023-07-20T04:20:23;13.18;;;5.82;;
20832;SDS011;56075;51.264;7.150;2023-07-20T04:22:55;13.13;;;5.93;;
20832;SDS011;56075;51.264;7.150;2023-07-20T04:25:27;14.55;;;6.95;;
20832;SDS011;56075;51.264;7.150;2023-07-20T04:27:58;14.80;;;6.43;;
20832;SDS011;56075;51.264;7.150;2023-07-20T04:30:29;14.30;;;6.20;;
20832;SDS011;56075;51.264;7.150;2023-07-20T04:33:03;14.90;;;7.65;;
20832;SDS011;56075;51.264;7.150;2023-07-20T04:35:46;16.80;;;7.18;;
20832;SDS011;56075;51.264;7.150;2023-07-20T04:38:24;16.13;;;7.25;;
20832;SDS011;56075;51.264;7.150;2023-07-20T04:41:02;15.63;;;8.13;;
20832;SDS011;56075;51.264;7.150;2023-07-20T04:43:40;18.33;;;8.45;;
20832;SDS011;56075;51.264;7.150;2023-07-20T04:49:06;23.92;;;9.00;;
20832;SDS011;56075;51.264;7.150;2023-07-20T04:51:42;25.08;;;10.15;;
20832;SDS011;56075;51.264;7.150;2023-07-20T04:54:14;26.08;;;10.13;;
20832;SDS011;56075;51.264;7.150;2023-07-20T04:56:45;21.23;;;10.43;;
20832;SDS011;56075;51.264;7.150;2023-07-20T04:59:18;21.75;;;10.60;;
20832;SDS011;56075;51.264;7.150;2023-07-20T05:01:49;24.02;;;10.45;;
20832;SDS011;56075;51.264;7.150;2023-07-20T05:04:21;21.60;;;9.68;;
20832;SDS011;56075;51.264;7.150;2023-07-20T05:06:52;24.63;;;10.82;;
20832;SDS011;56075;51.264;7.150;2023-07-20T05:09:23;25.40;;;11.02;;
20832;SDS011;56075;51.264;7.150;2023-07-20T05:11:55;23.73;;;10.93;;
20832;SDS011;56075;51.264;7.150;2023-07-20T05:14:27;23.85;;;11.02;;
20832;SDS011;56075;51.264;7.150;2023-07-20T05:16:59;26.25;;;12.18;;
20832;SDS011;56075;51.264;7.150;2023-07-20T05:19:30;26.63;;;12.27;;
20832;SDS011;56075;51.264;7.150;2023-07-20T05:22:01;28.55;;;12.75;;
20832;SDS011;56075;51.264;7.150;2023-07-20T05:24:32;29.20;;;13.70;;
20832;SDS011;56075;51.264;7.150;2023-07-20T05:27:04;29.20;;;14.00;;
20832;SDS011;56075;51.264;7.150;2023-07-20T05:29:35;25.83;;;13.00;;
20832;SDS011;56075;51.264;7.150;2023-07-20T05:32:06;28.98;;;14.30;;
20832;SDS011;56075;51.264;7.150;2023-07-20T05:34:38;30.30;;;14.27;;
20832;SDS011;56075;51.264;7.150;2023-07-20T05:37:09;34.05;;;15.60;;
20832;SDS011;56075;51.264;7.150;2023-07-20T05:39:40;32.20;;;14.77;;
20832;SDS011;56075;51.264;7.150;2023-07-20T05:42:11;30.35;;;14.25;;
20832;SDS011;56075;51.264;7.150;2023-07-20T05:44:42;26.58;;;14.02;;
20832;SDS011;56075;51.264;7.150;2023-07-20T05:47:13;31.48;;;14.57;;
20832;SDS011;56075;51.264;7.150;2023-07-20T05:49:45;36.05;;;16.75;;
20832;SDS011;56075;51.264;7.150;2023-07-20T05:52:16;32.15;;;15.93;;
20832;SDS011;56075;51.264;7.150;2023-07-20T05:54:47;40.45;;;17.88;;
20832;SDS011;56075;51.264;7.150;2023-07-20T05:57:18;37.95;;;19.05;;
20832;SDS011;56075;51.264;7.150;2023-07-20T05:59:49;45.85;;;21.33;;
20832;SDS011;56075;51.264;7.150;2023-07-20T06:02:20;48.33;;;21.63;;
20832;SDS011;56075;51.264;7.150;2023-07-20T06:04:52;43.88;;;21.85;;
20832;SDS011;56075;51.264;7.150;2023-07-20T06:07:23;45.40;;;20.98;;
20832;SDS011;56075;51.264;7.150;2023-07-20T06:09:54;46.08;;;22.38;;
20832;SDS011;56075;51.264;7.150;2023-07-20T06:12:25;42.85;;;20.88;;
20832;SDS011;56075;51.264;7.150;2023-07-20T06:14:56;45.17;;;20.80;;
20832;SDS011;56075;51.264;7.150;2023-07-20T06:17:27;46.58;;;22.50;;
20832;SDS011;56075;51.264;7.150;2023-07-20T06:19:58;46.67;;;22.05;;
20832;SDS011;56075;51.264;7.150;2023-07-20T06:22:29;49.40;;;21.75;;
20832;SDS011;56075;51.264;7.150;2023-07-20T06:25:01;48.05;;;22.90;;
20832;SDS011;56075;51.264;7.150;2023-07-20T06:27:32;44.58;;;21.90;;
20832;SDS011;56075;51.264;7.150;2023-07-20T06:30:03;39.53;;;20.25;;
20832;SDS011;56075;51.264;7.150;2023-07-20T06:32:35;43.85;;;20.52;;
20832;SDS011;56075;51.264;7.150;2023-07-20T06:35:06;38.60;;;19.17;;
20832;SDS011;56075;51.264;7.150;2023-07-20T06:37:39;38.08;;;18.45;;
20832;SDS011;56075;51.264;7.150;2023-07-20T06:40:10;33.03;;;17.42;;
20832;SDS011;56075;51.264;7.150;2023-07-20T06:42:41;33.85;;;17.25;;
20832;SDS011;56075;51.264;7.150;2023-07-20T06:45:13;34.40;;;17.08;;
20832;SDS011;56075;51.264;7.150;2023-07-20T06:47:44;29.40;;;15.93;;
20832;SDS011;56075;51.264;7.150;2023-07-20T06:50:15;25.15;;;13.77;;
20832;SDS011;56075;51.264;7.150;2023-07-20T06:52:46;25.08;;;14.32;;
20832;SDS011;56075;51.264;7.150;2023-07-20T06:55:18;23.70;;;12.60;;
20832;SDS011;56075;51.264;7.150;2023-07-20T06:57:49;27.13;;;13.30;;
20832;SDS011;56075;51.264;7.150;2023-07-20T07:00:21;22.58;;;11.93;;
20832;SDS011;56075;51.264;7.150;2023-07-20T07:02:53;17.35;;;9.75;;
20832;SDS011;56075;51.264;7.150;2023-07-20T07:05:24;18.48;;;9.25;;
20832;SDS011;56075;51.264;7.150;2023-07-20T07:07:55;18.98;;;9.23;;
20832;SDS011;56075;51.264;7.150;2023-07-20T07:10:26;17.40;;;8.10;;
20832;SDS011;56075;51.264;7.150;2023-07-20T07:12:57;15.15;;;8.00;;
20832;SDS011;56075;51.264;7.150;2023-07-20T07:15:28;14.27;;;7.22;;
20832;SDS011;56075;51.264;7.150;2023-07-20T07:17:59;14.07;;;6.95;;
20832;SDS011;56075;51.264;7.150;2023-07-20T07:20:30;13.85;;;6.57;;
20832;SDS011;56075;51.264;7.150;2023-07-20T07:23:02;11.10;;;6.93;;
20832;SDS011;56075;51.264;7.150;2023-07-20T07:25:33;14.88;;;6.90;;
20832;SDS011;56075;51.264;7.150;2023-07-20T07:28:04;16.13;;;8.80;;
20832;SDS011;56075;51.264;7.150;2023-07-20T07:30:35;13.95;;;8.60;;
20832;SDS011;56075;51.264;7.150;2023-07-20T07:33:06;12.57;;;7.18;;
20832;SDS011;56075;51.264;7.150;2023-07-20T07:35:38;10.18;;;6.50;;
20832;SDS011;56075;51.264;7.150;2023-07-20T07:38:09;13.25;;;7.18;;
20832;SDS011;56075;51.264;7.150;2023-07-20T07:40:41;10.40;;;6.70;;
20832;SDS011;56075;51.264;7.150;2023-07-20T07:43:12;17.73;;;7.60;;
20832;SDS011;56075;51.264;7.150;2023-07-20T07:45:44;13.52;;;7.10;;
20832;SDS011;56075;51.264;7.150;2023-07-20T07:48:15;12.63;;;7.32;;
20832;SDS011;56075;51.264;7.150;2023-07-20T07:50:47;10.80;;;6.07;;
20832;SDS011;56075;51.264;7.150;2023-07-20T07:53:20;10.15;;;6.25;;
20832;SDS011;56075;51.264;7.150;2023-07-20T07:55:51;10.15;;;6.10;;
20832;SDS011;56075;51.264;7.150;2023-07-20T07:58:23;11.02;;;6.05;;
20832;SDS011;56075;51.264;7.150;2023-07-20T08:00:55;11.13;;;6.07;;
20832;SDS011;56075;51.264;7.150;2023-07-20T08:03:26;10.75;;;5.18;;
20832;SDS011;56075;51.264;7.150;2023-07-20T08:05:57;8.68;;;4.90;;
20832;SDS011;56075;51.264;7.150;2023-07-20T08:08:31;5.82;;;3.45;;
20832;SDS011;56075;51.264;7.150;2023-07-20T08:11:03;7.15;;;3.50;;
20832;SDS011;56075;51.264;7.150;2023-07-20T08:13:35;4.40;;;2.70;;
20832;SDS011;56075;51.264;7.150;2023-07-20T08:16:06;4.60;;;2.95;;
20832;SDS011;56075;51.264;7.150;2023-07-20T08:18:37;5.18;;;3.25;;
20832;SDS011;56075;51.264;7.150;2023-07-20T08:21:08;4.60;;;3.13;;
20832;SDS011;56075;51.264;7.150;2023-07-20T08:23:39;4.03;;;2.97;;
20832;SDS011;56075;51.264;7.150;2023-07-20T08:26:11;2.72;;;2.22;;
20832;SDS011;56075;51.264;7.150;2023-07-20T08:28:43;2.40;;;1.90;;
20832;SDS011;56075;51.264;7.150;2023-07-20T08:31:15;2.75;;;1.95;;
20832;SDS011;56075;51.264;7.150;2023-07-20T08:33:47;3.03;;;1.77;;
20832;SDS011;56075;51.264;7.150;2023-07-20T08:36:18;2.42;;;1.70;;
20832;SDS011;56075;51.264;7.150;2023-07-20T08:38:49;2.53;;;1.90;;
20832;SDS011;56075;51.264;7.150;2023-07-20T08:41:21;3.42;;;2.30;;
20832;SDS011;56075;51.264;7.150;2023-07-20T08:43:52;3.67;;;2.00;;
20832;SDS011;56075;51.264;7.150;2023-07-20T08:46:27;2.83;;;2.13;;
20832;SDS011;56075;51.264;7.150;2023-07-20T08:48:59;3.20;;;2.15;;
20832;SDS011;56075;51.264;7.150;2023-07-20T08:51:33;4.80;;;2.17;;
20832;SDS011;56075;51.264;7.150;2023-07-20T08:54:06;5.20;;;2.47;;
20832;SDS011;56075;51.264;7.150;2023-07-20T08:56:39;3.00;;;2.50;;
20832;SDS011;56075;51.264;7.150;2023-07-20T08:59:12;3.78;;;2.88;;
20832;SDS011;56075;51.264;7.150;2023-07-20T09:01:47;3.08;;;2.47;;
20832;SDS011;56075;51.264;7.150;2023-07-20T09:04:18;2.92;;;1.90;;
20832;SDS011;56075;51.264;7.150;2023-07-20T09:06:50;1.80;;;1.50;;
20832;SDS011;56075;51.264;7.150;2023-07-20T09:09:21;2.53;;;1.70;;
20832;SDS011;56075;51.264;7.150;2023-07-20T09:11:52;2.83;;;1.20;;
20832;SDS011;56075;51.264;7.150;2023-07-20T09:14:24;1.70;;;1.50;;
20832;SDS011;56075;51.264;7.150;2023-07-20T09:16:55;2.30;;;1.80;;
20832;SDS011;56075;51.264;7.150;2023-07-20T09:19:27;3.33;;;2.60;;
20832;SDS011;56075;51.264;7.150;2023-07-20T09:21:58;4.00;;;2.58;;
20832;SDS011;56075;51.264;7.150;2023-07-20T09:24:29;2.13;;;1.92;;
20832;SDS011;56075;51.264;7.150;2023-07-20T09:27:01;2.15;;;1.77;;
20832;SDS011;56075;51.264;7.150;2023-07-20T09:29:40;2.95;;;2.10;;
20832;SDS011;56075;51.264;7.150;2023-07-20T09:32:24;2.72;;;1.95;;
20832;SDS011;56075;51.264;7.150;2023-07-20T09:34:55;2.00;;;1.80;;
20832;SDS011;56075;51.264;7.150;2023-07-20T09:37:26;3.80;;;1.75;;
20832;SDS011;56075;51.264;7.150;2023-07-20T09:39:58;2.15;;;1.70;;
20832;SDS011;56075;51.264;7.150;2023-07-20T09:42:29;3.53;;;1.77;;
20832;SDS011;56075;51.264;7.150;2023-07-20T09:45:01;3.00;;;1.23;;
20832;SDS011;56075;51.264;7.150;2023-07-20T09:47:33;1.80;;;0.90;;
20832;SDS011;56075;51.264;7.150;2023-07-20T09:50:08;1.00;;;0.90;;
20832;SDS011;56075;51.264;7.150;2023-07-20T09:52:41;1.38;;;0.90;;
20832;SDS011;56075;51.264;7.150;2023-07-20T09:55:14;1.83;;;1.10;;
20832;SDS011;56075;51.264;7.150;2023-07-20T09:57:46;4.30;;;1.20;;
20832;SDS011;56075;51.264;7.150;2023-07-20T10:00:18;2.80;;;1.17;;
20832;SDS011;56075;51.264;7.150;2023-07-20T10:02:49;2.35;;;1.33;;
20832;SDS011;56075;51.264;7.150;2023-07-20T10:05:22;1.50;;;1.08;;
20832;SDS011;56075;51.264;7.150;2023-07-20T10:07:57;5.30;;;1.17;;
20832;SDS011;56075;51.264;7.150;2023-07-20T10:10:29;1.13;;;1.00;;
20832;SDS011;56075;51.264;7.150;2023-07-20T10:13:03;2.38;;;1.50;;
20832;SDS011;56075;51.264;7.150;2023-07-20T10:15:37;1.92;;;1.50;;
20832;SDS011;56075;51.264;7.150;2023-07-20T10:18:25;1.52;;;1.35;;
20832;SDS011;56075;51.264;7.150;2023-07-20T10:21:06;2.40;;;1.95;;
20832;SDS011;56075;51.264;7.150;2023-07-20T10:23:38;2.85;;;1.60;;
20832;SDS011;56075;51.264;7.150;2023-07-20T10:26:09;2.22;;;1.58;;
20832;SDS011;56075;51.264;7.150;2023-07-20T10:28:41;2.30;;;1.75;;
20832;SDS011;56075;51.264;7.150;2023-07-20T10:31:13;2.55;;;1.60;;
20832;SDS011;56075;51.264;7.150;2023-07-20T10:33:46;2.70;;;1.52;;
20832;SDS011;56075;51.264;7.150;2023-07-20T10:36:21;2.65;;;1.70;;
20832;SDS011;56075;51.264;7.150;2023-07-20T10:38:56;2.72;;;2.05;;
20832;SDS011;56075;51.264;7.150;2023-07-20T10:41:29;3.30;;;2.15;;
20832;SDS011;56075;51.264;7.150;2023-07-20T10:44:10;2.67;;;1.92;;
20832;SDS011;56075;51.264;7.150;2023-07-20T10:46:43;2.22;;;1.95;;
20832;SDS011;56075;51.264;7.150;2023-07-20T10:49:17;1.88;;;1.60;;
20832;SDS011;56075;51.264;7.150;2023-07-20T10:51:56;1.70;;;1.55;;
20832;SDS011;56075;51.264;7.150;2023-07-20T11:00:08;3.33;;;1.95;;
20832;SDS011;56075;51.264;7.150;2023-07-20T11:02:45;2.10;;;1.90;;
20832;SDS011;56075;51.264;7.150;2023-07-20T11:05:36;3.40;;;2.30;;
20832;SDS011;56075;51.264;7.150;2023-07-20T11:08:11;5.05;;;2.47;;
20832;SDS011;56075;51.264;7.150;2023-07-20T11:10:43;4.28;;;2.67;;
20832;SDS011;56075;51.264;7.150;2023-07-20T11:13:21;4.15;;;2.80;;
20832;SDS011;56075;51.264;7.150;2023-07-20T11:18:28;3.42;;;2.83;;
20832;SDS011;56075;51.264;7.150;2023-07-20T11:20:59;3.33;;;2.80;;
20832;SDS011;56075;51.264;7.150;2023-07-20T11:23:31;4.78;;;3.20;;
20832;SDS011;56075;51.264;7.150;2023-07-20T11:26:02;3.28;;;2.80;;
20832;SDS011;56075;51.264;7.150;2023-07-20T11:28:34;4.57;;;3.47;;
20832;SDS011;56075;51.264;7.150;2023-07-20T11:31:06;2.90;;;2.60;;
20832;SDS011;56075;51.264;7.150;2023-07-20T11:33:37;3.58;;;2.67;;
20832;SDS011;56075;51.264;7.150;2023-07-20T11:36:08;3.50;;;3.00;;
20832;SDS011;56075;51.264;7.150;2023-07-20T11:38:42;3.35;;;2.60;;
20832;SDS011;56075;51.264;7.150;2023-07-20T11:41:14;4.80;;;2.88;;
20832;SDS011;56075;51.264;7.150;2023-07-20T11:43:45;3.60;;;2.58;;
20832;SDS011;56075;51.264;7.150;2023-07-20T11:46:17;4.60;;;2.80;;
20832;SDS011;56075;51.264;7.150;2023-07-20T11:48:48;3.55;;;2.40;;
20832;SDS011;56075;51.264;7.150;2023-07-20T11:51:26;4.22;;;2.35;;
20832;SDS011;56075;51.264;7.150;2023-07-20T11:54:00;3.50;;;2.10;;
20832;SDS011;56075;51.264;7.150;2023-07-20T11:56:32;3.75;;;2.35;;
20832;SDS011;56075;51.264;7.150;2023-07-20T11:59:04;3.22;;;2.55;;
20832;SDS011;56075;51.264;7.150;2023-07-20T12:01:37;4.65;;;2.75;;
20832;SDS011;56075;51.264;7.150;2023-07-20T12:04:08;2.80;;;2.13;;
20832;SDS011;56075;51.264;7.150;2023-07-20T12:06:39;3.28;;;2.40;;
20832;SDS011;56075;51.264;7.150;2023-07-20T12:09:13;4.28;;;2.90;;
20832;SDS011;56075;51.264;7.150;2023-07-20T12:11:48;4.03;;;2.92;;
20832;SDS011;56075;51.264;7.150;2023-07-20T12:14:20;3.60;;;2.75;;
20832;SDS011;56075;51.264;7.150;2023-07-20T12:16:55;2.67;;;2.33;;
20832;SDS011;56075;51.264;7.150;2023-07-20T12:19:27;4.55;;;2.65;;
20832;SDS011;56075;51.264;7.150;2023-07-20T12:21:58;2.83;;;2.40;;
20832;SDS011;56075;51.264;7.150;2023-07-20T12:24:32;3.90;;;2.33;;
20832;SDS011;56075;51.264;7.150;2023-07-20T12:27:03;3.88;;;2.22;;
20832;SDS011;56075;51.264;7.150;2023-07-20T12:29:35;3.38;;;2.20;;
20832;SDS011;56075;51.264;7.150;2023-07-20T12:32:07;3.30;;;2.42;;
20832;SDS011;56075;51.264;7.150;2023-07-20T12:34:38;3.40;;;1.80;;
20832;SDS011;56075;51.264;7.150;2023-07-20T12:37:09;2.67;;;1.80;;
20832;SDS011;56075;51.264;7.150;2023-07-20T12:39:40;3.35;;;1.77;;
20832;SDS011;56075;51.264;7.150;2023-07-20T12:42:14;2.35;;;1.42;;
20832;SDS011;56075;51.264;7.150;2023-07-20T12:44:47;1.80;;;1.40;;
20832;SDS011;56075;51.264;7.150;2023-07-20T12:47:19;2.58;;;1.55;;
20832;SDS011;56075;51.264;7.150;2023-07-20T12:49:50;1.75;;;1.20;;
20832;SDS011;56075;51.264;7.150;2023-07-20T12:52:21;1.58;;;1.15;;
20832;SDS011;56075;51.264;7.150;2023-07-20T12:54:53;1.20;;;1.00;;
20832;SDS011;56075;51.264;7.150;2023-07-20T12:57:24;2.15;;;1.80;;
20832;SDS011;56075;51.264;7.150;2023-07-20T12:59:55;1.98;;;1.02;;
20832;SDS011;56075;51.264;7.150;2023-07-20T13:02:26;1.25;;;0.90;;
20832;SDS011;56075;51.264;7.150;2023-07-20T13:04:58;1.38;;;0.93;;
20832;SDS011;56075;51.264;7.150;2023-07-20T13:07:30;1.50;;;0.80;;
20832;SDS011;56075;51.264;7.150;2023-07-20T13:10:03;2.47;;;0.90;;
20832;SDS011;56075;51.264;7.150;2023-07-20T13:12:35;5.78;;;0.98;;
20832;SDS011;56075;51.264;7.150;2023-07-20T13:15:07;4.55;;;0.90;;
20832;SDS011;56075;51.264;7.150;2023-07-20T13:17:39;2.80;;;1.08;;
20832;SDS011;56075;51.264;7.150;2023-07-20T13:20:11;2.50;;;1.10;;
20832;SDS011;56075;51.264;7.150;2023-07-20T13:22:42;2.50;;;1.10;;
20832;SDS011;56075;51.264;7.150;2023-07-20T13:25:13;1.55;;;1.00;;
20832;SDS011;56075;51.264;7.150;2023-07-20T13:27:44;1.88;;;1.10;;
20832;SDS011;56075;51.264;7.150;2023-07-20T13:30:16;1.88;;;1.40;;
20832;SDS011;56075;51.264;7.150;2023-07-20T13:32:47;1.30;;;0.90;;
20832;SDS011;56075;51.264;7.150;2023-07-20T13:35:18;1.75;;;1.10;;
20832;SDS011;56075;51.264;7.150;2023-07-20T13:37:50;1.67;;;1.00;;
20832;SDS011;56075;51.264;7.150;2023-07-20T13:40:21;1.13;;;0.90;;
20832;SDS011;56075;51.264;7.150;2023-07-20T13:42:53;2.80;;;1.00;;
20832;SDS011;56075;51.264;7.150;2023-07-20T13:45:24;2.63;;;0.95;;
20832;SDS011;56075;51.264;7.150;2023-07-20T13:47:56;1.75;;;1.00;;
20832;SDS011;56075;51.264;7.150;2023-07-20T13:50:27;2.38;;;1.10;;
20832;SDS011;56075;51.264;7.150;2023-07-20T13:52:59;2.20;;;1.13;;
20832;SDS011;56075;51.264;7.150;2023-07-20T13:55:32;3.83;;;1.20;;
20832;SDS011;56075;51.264;7.150;2023-07-20T13:58:07;3.33;;;1.15;;
20832;SDS011;56075;51.264;7.150;2023-07-20T14:00:40;2.35;;;1.23;;
20832;SDS011;56075;51.264;7.150;2023-07-20T14:03:11;6.00;;;1.40;;
20832;SDS011;56075;51.264;7.150;2023-07-20T14:05:42;5.72;;;1.60;;
20832;SDS011;56075;51.264;7.150;2023-07-20T14:08:14;4.57;;;1.63;;
20832;SDS011;56075;51.264;7.150;2023-07-20T14:10:45;6.78;;;1.63;;
20832;SDS011;56075;51.264;7.150;2023-07-20T14:13:16;2.65;;;1.58;;
20832;SDS011;56075;51.264;7.150;2023-07-20T14:15:47;2.80;;;1.70;;
20832;SDS011;56075;51.264;7.150;2023-07-20T14:18:20;2.67;;;1.42;;
20832;SDS011;56075;51.264;7.150;2023-07-20T14:20:51;5.85;;;1.75;;
20832;SDS011;56075;51.264;7.150;2023-07-20T14:23:22;5.43;;;1.83;;
20832;SDS011;56075;51.264;7.150;2023-07-20T14:25:54;3.22;;;1.63;;
20832;SDS011;56075;51.264;7.150;2023-07-20T14:28:25;3.47;;;1.17;;
20832;SDS011;56075;51.264;7.150;2023-07-20T14:30:56;1.48;;;1.20;;
20832;SDS011;56075;51.264;7.150;2023-07-20T14:33:27;2.28;;;1.42;;
20832;SDS011;56075;51.264;7.150;2023-07-20T14:35:58;4.82;;;1.20;;
20832;SDS011;56075;51.264;7.150;2023-07-20T14:38:33;1.55;;;1.30;;
20832;SDS011;56075;51.264;7.150;2023-07-20T14:41:05;4.40;;;1.40;;
20832;SDS011;56075;51.264;7.150;2023-07-20T14:43:36;3.28;;;1.50;;
20832;SDS011;56075;51.264;7.150;2023-07-20T14:46:09;3.45;;;1.60;;
20832;SDS011;56075;51.264;7.150;2023-07-20T14:48:40;2.10;;;1.20;;
20832;SDS011;56075;51.264;7.150;2023-07-20T14:51:12;3.50;;;1.20;;
20832;SDS011;56075;51.264;7.150;2023-07-20T14:53:43;1.85;;;1.13;;
20832;SDS011;56075;51.264;7.150;2023-07-20T14:56:14;3.70;;;1.77;;
20832;SDS011;56075;51.264;7.150;2023-07-20T14:58:45;2.38;;;1.40;;
20832;SDS011;56075;51.264;7.150;2023-07-20T15:01:16;1.55;;;1.10;;
20832;SDS011;56075;51.264;7.150;2023-07-20T15:03:47;1.52;;;1.20;;
20832;SDS011;56075;51.264;7.150;2023-07-20T15:06:20;3.58;;;1.27;;
20832;SDS011;56075;51.264;7.150;2023-07-20T15:08:52;2.00;;;1.20;;
20832;SDS011;56075;51.264;7.150;2023-07-20T15:11:23;2.90;;;1.20;;
20832;SDS011;56075;51.264;7.150;2023-07-20T15:13:55;1.98;;;1.00;;
20832;SDS011;56075;51.264;7.150;2023-07-20T15:16:26;1.20;;;0.82;;
20832;SDS011;56075;51.264;7.150;2023-07-20T15:18:58;1.63;;;0.90;;
20832;SDS011;56075;51.264;7.150;2023-07-20T15:21:29;2.42;;;0.93;;